Time;durP1;ratioP1;P1;durP2;ratioP2;P2;SDS_P1;SDS_P2;PMS_P1;PMS_P2;Temp;Humidity;BMP_temperature;BMP_pressure;BME280_temperature;BME280_humidity;BME280_pressure;Samples;Min_cycle;Max_cycle;Signal;HPM_P1;HPM_P2
2022/01/24 00:01:59;;;;;;;;;;;;;;;4.00;75.65;102781.38;5032294;27;19907;-67
2022/01/24 00:04:24;;;;;;;;;;;;;;;4.00;76.13;102790.09;5032734;27;19914;-67
2022/01/24 00:06:50;;;;;;;;;;;;;;;4.04;75.84;102781.25;5031933;27;19948;-67
2022/01/24 00:09:15;;;;;;;;;;;;;;;4.07;76.25;102785.53;5033150;27;20631;-67
2022/01/24 00:17:10;;;;;;;;;;;;;;;4.19;75.11;102771.22;5035711;27;20016;-67
2022/01/24 00:27:47;;;;;;;;;;;;;;;4.22;75.81;102787.72;5051464;27;20721;-68
2022/01/24 00:30:14;;;;;;;;;;;;;;;4.25;75.11;102784.16;5032020;27;19907;-69
2022/01/24 00:32:40;;;;;;;;;;;;;;;4.23;74.95;102783.31;5032439;27;19908;-68
2022/01/24 00:35:05;;;;;;;;;;;;;;;4.21;75.19;102786.00;5051330;27;21191;-68
2022/01/24 00:37:33;;;;;;;;;;;;;;;4.21;75.17;102779.91;5047592;27;20361;-68
2022/01/24 00:39:58;;;;;;;;;;;;;;;4.22;75.01;102779.84;5013860;27;19908;-69
2022/01/24 00:55:19;;;;;;;;;;;;;;;4.26;74.65;102770.16;5041175;27;19965;-70
2022/01/24 00:57:44;;;;;;;;;;;;;;;4.21;74.77;102767.66;5031387;27;19911;-68
2022/01/24 01:00:09;;;;;;;;;;;;;;;4.18;75.13;102762.50;5040121;27;19911;-66
2022/01/24 01:02:35;;;;;;;;;;;;;;;4.21;75.19;102764.19;5031296;27;20046;-68
2022/01/24 01:05:34;;;;;;;;;;;;;;;4.15;75.12;102777.47;5049833;27;20024;-69
2022/01/24 01:18:43;;;;;;;;;;;;;;;4.20;75.43;102765.06;5033294;27;20729;-69
2022/01/24 01:21:10;;;;;;;;;;;;;;;4.15;75.42;102770.47;5031067;27;20397;-70
2022/01/24 01:23:38;;;;;;;;;;;;;;;4.22;75.17;102766.75;5043947;27;20004;-66
2022/01/24 01:26:10;;;;;;;;;;;;;;;4.27;75.62;102770.09;5033780;27;19923;-69
2022/01/24 01:28:38;;;;;;;;;;;;;;;4.26;75.04;102754.44;5050985;27;19907;-70
2022/01/24 01:31:09;;;;;;;;;;;;;;;4.19;75.23;102763.34;5031615;27;19911;-69
2022/01/24 01:34:03;;;;;;;;;;;;;;;4.23;75.76;102749.25;5033305;27;19899;-68
2022/01/24 01:37:06;;;;;;;;;;;;;;;4.26;75.20;102749.19;5033783;27;20010;-69
2022/01/24 01:53:18;;;;;;;;;;;;;;;4.25;75.29;102758.78;5033453;27;19927;-71
2022/01/24 01:55:43;;;;;;;;;;;;;;;4.29;76.35;102755.19;5015428;28;19916;-70
2022/01/24 01:58:18;;;;;;;;;;;;;;;4.35;76.32;102751.50;5028545;27;19964;-70
2022/01/24 02:00:44;;;;;;;;;;;;;;;4.31;76.34;102755.13;5032366;28;19967;-70
2022/01/24 02:03:09;;;;;;;;;;;;;;;4.30;76.50;102742.91;5012050;28;20274;-70
2022/01/24 02:05:35;;;;;;;;;;;;;;;4.35;76.76;102746.28;5009347;28;20814;-70
2022/01/24 02:08:00;;;;;;;;;;;;;;;4.31;76.95;102744.66;5013114;27;20107;-69
2022/01/24 02:10:26;;;;;;;;;;;;;;;4.41;76.08;102745.22;5016803;27;19911;-68
2022/01/24 02:12:52;;;;;;;;;;;;;;;4.36;76.13;102744.50;5016631;27;20063;-68
2022/01/24 02:15:25;;;;;;;;;;;;;;;4.34;75.86;102749.78;4996834;27;19903;-70
2022/01/24 02:21:11;;;;;;;;;;;;;;;4.35;76.03;102735.78;4943996;28;19947;-70
2022/01/24 02:26:08;;;;;;;;;;;;;;;4.30;76.46;102742.91;5037505;27;20243;-68
2022/01/24 02:28:54;;;;;;;;;;;;;;;4.31;76.58;102734.16;5033604;27;19913;-69
2022/01/24 02:33:49;;;;;;;;;;;;;;;4.36;76.57;102716.53;5033208;27;19911;-69
2022/01/24 02:36:18;;;;;;;;;;;;;;;4.36;76.43;102721.78;5036349;27;19911;-69
2022/01/24 02:49:28;;;;;;;;;;;;;;;4.24;76.86;102712.53;5036495;27;19911;-69
2022/01/24 02:52:00;;;;;;;;;;;;;;;4.23;76.99;102702.97;5048229;27;19911;-69
2022/01/24 02:54:31;;;;;;;;;;;;;;;4.31;77.03;102710.56;5036273;27;20393;-69
2022/01/24 02:56:57;;;;;;;;;;;;;;;4.19;76.68;102703.97;5051729;27;20748;-67
2022/01/24 02:59:22;;;;;;;;;;;;;;;4.24;77.22;102706.44;5032933;27;19955;-69
2022/01/24 03:01:47;;;;;;;;;;;;;;;4.18;77.03;102698.78;5033497;27;20020;-69
2022/01/24 03:04:13;;;;;;;;;;;;;;;4.24;77.02;102690.72;5035416;27;19907;-70
2022/01/24 03:06:38;;;;;;;;;;;;;;;4.28;76.87;102700.19;5034642;27;19930;-69
2022/01/24 03:09:03;;;;;;;;;;;;;;;4.27;77.02;102690.59;5035541;27;20247;-69
2022/01/24 03:11:49;;;;;;;;;;;;;;;4.31;76.99;102684.38;5050897;27;20566;-68
2022/01/24 03:14:14;;;;;;;;;;;;;;;4.33;76.79;102679.06;5054824;27;20008;-67
2022/01/24 03:16:39;;;;;;;;;;;;;;;4.25;77.17;102677.56;5033725;27;19908;-68
2022/01/24 03:19:04;;;;;;;;;;;;;;;4.29;76.74;102679.19;5032154;27;19903;-68
2022/01/24 03:21:29;;;;;;;;;;;;;;;4.22;77.35;102684.66;5023213;27;20099;-68
2022/01/24 03:23:55;;;;;;;;;;;;;;;4.29;77.10;102676.56;5034942;27;20297;-70
2022/01/24 03:26:20;;;;;;;;;;;;;;;4.26;77.22;102673.19;5033670;27;20347;-69
2022/01/24 03:28:45;;;;;;;;;;;;;;;4.23;76.84;102674.13;5024519;27;19908;-69
2022/01/24 03:31:10;;;;;;;;;;;;;;;4.27;77.18;102674.88;5042617;27;19979;-70
2022/01/24 03:33:35;;;;;;;;;;;;;;;4.36;76.91;102678.97;5032969;27;19949;-68
2022/01/24 03:36:01;;;;;;;;;;;;;;;4.38;76.82;102685.88;5030347;27;20067;-70
2022/01/24 03:38:26;;;;;;;;;;;;;;;4.39;77.48;102687.59;5011998;27;19904;-70
2022/01/24 03:40:51;;;;;;;;;;;;;;;4.40;77.21;102689.34;5013258;27;19995;-67
2022/01/24 03:43:17;;;;;;;;;;;;;;;4.35;76.70;102688.59;5013672;27;19904;-70
2022/01/24 03:45:46;;;;;;;;;;;;;;;4.36;76.85;102684.22;5013332;27;19927;-67
2022/01/24 03:48:25;;;;;;;;;;;;;;;4.27;76.97;102691.47;5017815;27;19903;-67
2022/01/24 03:50:50;;;;;;;;;;;;;;;4.24;77.20;102694.19;5028088;27;19911;-67
2022/01/24 03:53:15;;;;;;;;;;;;;;;4.23;76.75;102699.47;5053232;27;19917;-69
2022/01/24 03:55:41;;;;;;;;;;;;;;;4.23;77.13;102699.47;5051837;27;20399;-68
2022/01/24 03:58:06;;;;;;;;;;;;;;;4.25;76.66;102705.53;5050878;27;20338;-68
2022/01/24 04:00:31;;;;;;;;;;;;;;;4.25;77.04;102705.53;5031672;27;19907;-70
2022/01/24 04:02:57;;;;;;;;;;;;;;;4.24;77.16;102695.94;5050673;27;19907;-70
2022/01/24 04:05:22;;;;;;;;;;;;;;;4.29;77.18;102707.16;5016150;27;19919;-68
2022/01/24 04:07:47;;;;;;;;;;;;;;;4.28;77.13;102695.78;5033020;27;19951;-68
2022/01/24 04:10:17;;;;;;;;;;;;;;;4.32;76.96;102699.19;5035531;27;20854;-67
2022/01/24 04:12:42;;;;;;;;;;;;;;;4.33;77.90;102706.16;5011181;27;19914;-67
2022/01/24 04:15:13;;;;;;;;;;;;;;;4.34;77.11;102704.38;5031337;27;20012;-67
2022/01/24 04:17:42;;;;;;;;;;;;;;;4.27;76.54;102699.34;5033365;27;19907;-68
2022/01/24 04:22:54;;;;;;;;;;;;;;;4.20;77.75;102689.97;5047267;27;20396;-69
2022/01/24 04:25:23;;;;;;;;;;;;;;;4.17;76.96;102695.28;5053411;27;20092;-67
2022/01/24 04:27:49;;;;;;;;;;;;;;;4.16;77.72;102687.47;5031419;27;19907;-68
2022/01/24 04:30:14;;;;;;;;;;;;;;;4.22;77.23;102692.53;5031178;27;19907;-68
2022/01/24 04:32:39;;;;;;;;;;;;;;;4.12;76.89;102687.56;5032350;27;19907;-68
2022/01/24 04:35:05;;;;;;;;;;;;;;;4.19;77.28;102692.59;5035220;27;19909;-67
2022/01/24 04:37:30;;;;;;;;;;;;;;;4.19;77.37;102697.84;5034438;27;19918;-69
2022/01/24 04:39:56;;;;;;;;;;;;;;;4.20;76.77;102692.59;5050630;27;20972;-69
2022/01/24 04:42:30;;;;;;;;;;;;;;;4.16;76.55;102695.31;5029693;27;20752;-69
2022/01/24 04:45:20;;;;;;;;;;;;;;;4.21;77.23;102703.91;5052643;27;19923;-67
2022/01/24 04:53:27;;;;;;;;;;;;;;;4.27;77.22;102711.56;5050147;27;20269;-70
2022/01/24 04:55:52;;;;;;;;;;;;;;;4.33;77.04;102710.53;5051558;27;19907;-71
2022/01/24 04:58:18;;;;;;;;;;;;;;;4.28;76.80;102718.53;5014659;27;20444;-71
2022/01/24 05:00:43;;;;;;;;;;;;;;;4.29;76.78;102713.25;5032080;27;20000;-70
2022/01/24 05:03:08;;;;;;;;;;;;;;;4.22;76.65;102703.84;5032026;27;19911;-70
2022/01/24 05:05:33;;;;;;;;;;;;;;;4.18;76.59;102717.13;5050658;27;19908;-70
2022/01/24 05:08:03;;;;;;;;;;;;;;;4.25;76.79;102703.75;5034407;27;20331;-70
2022/01/24 05:10:36;;;;;;;;;;;;;;;4.21;76.27;102712.63;5034516;27;19960;-68
2022/01/24 05:23:54;;;;;;;;;;;;;;;4.26;76.27;102699.41;5048045;27;19907;-68
2022/01/24 05:26:19;;;;;;;;;;;;;;;4.22;76.87;102701.25;5052504;27;19942;-68
2022/01/24 05:28:45;;;;;;;;;;;;;;;4.24;77.08;102706.44;5052635;27;19944;-70
2022/01/24 05:31:10;;;;;;;;;;;;;;;4.30;76.41;102701.00;5030706;27;20747;-69
2022/01/24 05:33:35;;;;;;;;;;;;;;;4.28;76.48;102710.69;5032049;27;20116;-69
2022/01/24 05:36:00;;;;;;;;;;;;;;;4.27;76.32;102717.69;5030094;27;19995;-69
2022/01/24 05:38:26;;;;;;;;;;;;;;;4.28;76.54;102713.28;5013228;27;20330;-70
2022/01/24 05:40:51;;;;;;;;;;;;;;;4.29;76.98;102713.25;5012730;27;20855;-67
2022/01/24 05:43:16;;;;;;;;;;;;;;;4.24;77.89;102711.66;5014084;27;20252;-69
2022/01/24 05:45:41;;;;;;;;;;;;;;;4.24;77.73;102709.06;5017285;27;20796;-69
2022/01/24 05:48:07;;;;;;;;;;;;;;;4.19;78.18;102714.44;5050645;27;20287;-70
2022/01/24 05:50:32;;;;;;;;;;;;;;;4.16;77.94;102709.31;5053276;27;20836;-69
2022/01/24 05:52:57;;;;;;;;;;;;;;;4.16;78.23;102704.06;5050090;27;20558;-70
2022/01/24 05:55:22;;;;;;;;;;;;;;;4.16;78.52;102709.31;5056326;27;21724;-68
2022/01/24 05:57:48;;;;;;;;;;;;;;;4.13;78.10;102705.00;5052138;27;20234;-69
2022/01/24 06:00:13;;;;;;;;;;;;;;;4.11;78.62;102696.31;5055759;27;20384;-68
2022/01/24 06:02:38;;;;;;;;;;;;;;;4.11;78.60;102698.94;5026100;28;20238;-68
2022/01/24 06:05:04;;;;;;;;;;;;;;;4.02;78.83;102709.72;5016217;28;20520;-68
2022/01/24 06:07:29;;;;;;;;;;;;;;;3.96;78.49;102707.25;5012140;28;19903;-68
2022/01/24 06:09:54;;;;;;;;;;;;;;;3.91;79.20;102709.16;5034906;28;20011;-68
2022/01/24 06:12:19;;;;;;;;;;;;;;;3.87;79.04;102707.53;5012398;28;19914;-69
2022/01/24 06:14:45;;;;;;;;;;;;;;;3.82;79.55;102706.81;5032286;27;19911;-68
2022/01/24 06:17:10;;;;;;;;;;;;;;;3.76;79.02;102715.69;5033860;27;20016;-67
2022/01/24 06:19:36;;;;;;;;;;;;;;;3.71;79.48;102717.56;5033402;27;19904;-70
2022/01/24 06:22:01;;;;;;;;;;;;;;;3.66;79.32;102714.25;5035394;27;19917;-68
2022/01/24 06:24:26;;;;;;;;;;;;;;;3.59;79.66;102726.66;5024756;28;19910;-70
2022/01/24 06:26:51;;;;;;;;;;;;;;;3.55;79.72;102717.16;5032779;28;19930;-68
2022/01/24 06:29:18;;;;;;;;;;;;;;;3.56;79.59;102729.34;5015299;28;20528;-70
2022/01/24 06:31:43;;;;;;;;;;;;;;;3.44;79.76;102725.28;5039638;27;20159;-70
2022/01/24 06:34:08;;;;;;;;;;;;;;;3.40;80.29;102723.69;5040562;27;19960;-70
2022/01/24 06:36:34;;;;;;;;;;;;;;;3.28;80.46;102724.00;5034237;27;19911;-70
2022/01/24 06:39:04;;;;;;;;;;;;;;;3.23;80.37;102721.53;5013542;28;19915;-69
2022/01/24 06:41:33;;;;;;;;;;;;;;;3.05;80.95;102725.47;5009355;27;19904;-67
2022/01/24 06:43:58;;;;;;;;;;;;;;;3.06;81.40;102735.00;5052332;27;20742;-70
2022/01/24 06:46:23;;;;;;;;;;;;;;;2.98;81.27;102737.81;5068072;27;19930;-70
2022/01/24 06:48:48;;;;;;;;;;;;;;;2.91;80.66;102737.09;5056041;27;19908;-67
2022/01/24 06:51:14;;;;;;;;;;;;;;;2.79;80.88;102740.00;5018747;27;19922;-68
2022/01/24 06:53:39;;;;;;;;;;;;;;;2.72;81.79;102744.56;5022386;27;19956;-68
2022/01/24 06:56:05;;;;;;;;;;;;;;;2.62;82.22;102740.41;5053614;27;19951;-68
2022/01/24 06:58:30;;;;;;;;;;;;;;;2.56;82.58;102744.03;5018065;27;19972;-68
2022/01/24 07:00:55;;;;;;;;;;;;;;;2.46;83.19;102741.69;5034607;27;19952;-68
2022/01/24 07:03:20;;;;;;;;;;;;;;;2.41;83.38;102731.31;5036977;27;20065;-68
2022/01/24 07:05:46;;;;;;;;;;;;;;;2.43;83.53;102733.91;5034352;27;19931;-67
2022/01/24 07:08:11;;;;;;;;;;;;;;;2.44;83.55;102731.28;5054306;27;19907;-68
2022/01/24 07:10:36;;;;;;;;;;;;;;;2.34;83.89;102728.00;5017700;27;19911;-67
2022/01/24 07:13:01;;;;;;;;;;;;;;;2.35;84.13;102727.09;5017531;27;19907;-68
2022/01/24 07:15:34;;;;;;;;;;;;;;;2.33;84.54;102728.03;5035539;27;19984;-67
2022/01/24 07:18:15;;;;;;;;;;;;;;;2.36;84.27;102728.81;5009844;27;19904;-68
2022/01/24 07:20:41;;;;;;;;;;;;;;;2.38;84.72;102737.50;5032615;27;19903;-67
2022/01/24 07:23:06;;;;;;;;;;;;;;;2.37;84.39;102727.94;5028579;27;19915;-67
2022/01/24 07:25:31;;;;;;;;;;;;;;;2.28;84.49;102729.88;5054312;27;20047;-67
2022/01/24 07:27:56;;;;;;;;;;;;;;;2.21;84.69;102740.47;5018038;27;19995;-66
2022/01/24 07:30:21;;;;;;;;;;;;;;;2.15;84.69;102734.53;5035960;27;20000;-67
2022/01/24 07:32:47;;;;;;;;;;;;;;;2.16;84.71;102733.63;5049297;27;20230;-66
2022/01/24 07:35:12;;;;;;;;;;;;;;;2.10;84.67;102739.84;5017848;27;20202;-66
2022/01/24 07:37:37;;;;;;;;;;;;;;;2.02;84.86;102734.78;5016520;27;20432;-68
2022/01/24 07:40:06;;;;;;;;;;;;;;;1.99;84.88;102741.81;5030992;27;19907;-68
2022/01/24 07:42:53;;;;;;;;;;;;;;;2.03;84.84;102733.88;5036662;27;19907;-69
2022/01/24 07:45:16;;;;;;;;;;;;;;;1.97;84.58;102741.00;5053179;27;20027;-68
2022/01/24 07:47:41;;;;;;;;;;;;;;;1.99;84.91;102749.63;5056837;27;20766;-69
2022/01/24 07:50:07;;;;;;;;;;;;;;;2.06;84.75;102746.03;5027963;27;19915;-68
2022/01/24 07:52:32;;;;;;;;;;;;;;;1.95;84.48;102754.06;5053526;27;19915;-68
2022/01/24 07:54:57;;;;;;;;;;;;;;;1.94;84.73;102757.56;5040647;27;20019;-68
2022/01/24 07:57:22;;;;;;;;;;;;;;;1.89;84.96;102759.44;5036678;27;19944;-68
2022/01/24 07:59:48;;;;;;;;;;;;;;;1.86;85.35;102765.56;5057405;27;20004;-67
2022/01/24 08:02:13;;;;;;;;;;;;;;;1.93;85.52;102765.44;5044966;27;19918;-69
2022/01/24 08:04:38;;;;;;;;;;;;;;;1.91;85.44;102757.63;5064355;27;19907;-69
2022/01/24 08:07:03;;;;;;;;;;;;;;;1.96;85.13;102767.97;5057579;27;19980;-69
2022/01/24 08:09:29;;;;;;;;;;;;;;;2.02;84.93;102766.09;5060088;27;20243;-68
2022/01/24 08:11:54;;;;;;;;;;;;;;;1.97;84.91;102762.72;5031937;27;20027;-69
2022/01/24 08:14:19;;;;;;;;;;;;;;;1.91;85.42;102764.63;5017644;27;20157;-68
2022/01/24 08:16:45;;;;;;;;;;;;;;;1.93;85.76;102766.28;5017146;27;19996;-69
2022/01/24 08:19:10;;;;;;;;;;;;;;;2.01;85.61;102759.16;5045726;27;19952;-68
2022/01/24 08:21:35;;;;;;;;;;;;;;;2.10;85.81;102767.69;5029720;27;20011;-68
2022/01/24 08:24:02;;;;;;;;;;;;;;;2.18;85.71;102768.41;5042502;27;20752;-69
2022/01/24 08:26:27;;;;;;;;;;;;;;;2.20;86.08;102777.06;5032860;27;19924;-68
2022/01/24 08:28:52;;;;;;;;;;;;;;;2.23;86.19;102769.19;5037593;27;19978;-68
2022/01/24 08:31:18;;;;;;;;;;;;;;;2.35;86.19;102771.50;5042641;27;20170;-66
2022/01/24 08:33:44;;;;;;;;;;;;;;;2.37;86.31;102769.72;5043651;27;19956;-69
2022/01/24 08:36:10;;;;;;;;;;;;;;;2.45;86.19;102768.69;5045245;27;20856;-67
2022/01/24 08:38:36;;;;;;;;;;;;;;;2.58;86.61;102770.13;5042120;27;19912;-66
2022/01/24 08:41:07;;;;;;;;;;;;;;;2.64;86.56;102779.63;5054579;27;19907;-68
2022/01/24 08:43:52;;;;;;;;;;;;;;;2.77;86.49;102783.66;5018431;27;20111;-68
2022/01/24 08:46:17;;;;;;;;;;;;;;;2.95;86.21;102779.75;5033173;27;19942;-67
2022/01/24 08:48:43;;;;;;;;;;;;;;;3.08;85.65;102782.91;5012724;27;19903;-66
2022/01/24 08:51:08;;;;;;;;;;;;;;;3.23;84.87;102776.47;5027602;27;19907;-67
2022/01/24 08:53:34;;;;;;;;;;;;;;;3.33;84.62;102785.78;5013193;27;20885;-67
2022/01/24 08:56:04;;;;;;;;;;;;;;;3.47;84.20;102782.81;5004096;27;19910;-67
2022/01/24 08:58:32;;;;;;;;;;;;;;;3.62;83.53;102781.53;5017474;27;19911;-69
2022/01/24 09:00:58;;;;;;;;;;;;;;;3.68;83.49;102786.63;5031918;27;19911;-66
2022/01/24 09:03:25;;;;;;;;;;;;;;;3.90;82.51;102783.41;5034220;27;20795;-67
2022/01/24 09:05:53;;;;;;;;;;;;;;;3.98;81.17;102786.66;5039472;27;19930;-66
2022/01/24 09:08:18;;;;;;;;;;;;;;;4.10;80.53;102777.59;5034634;27;20327;-69
2022/01/24 09:10:44;;;;;;;;;;;;;;;4.28;80.38;102770.94;5035984;27;19964;-68
2022/01/24 09:13:09;;;;;;;;;;;;;;;4.28;80.17;102777.03;5023304;27;20036;-69
2022/01/24 09:15:34;;;;;;;;;;;;;;;4.28;79.13;102770.94;5016634;27;19911;-68
2022/01/24 09:17:59;;;;;;;;;;;;;;;4.37;78.47;102765.44;5041977;27;20403;-68
2022/01/24 09:20:25;;;;;;;;;;;;;;;4.49;78.11;102771.22;5042925;27;19982;-69
2022/01/24 09:22:51;;;;;;;;;;;;;;;4.60;78.36;102771.75;5045342;27;20191;-66
2022/01/24 09:25:19;;;;;;;;;;;;;;;4.71;77.20;102771.38;5042052;27;20434;-70
2022/01/24 09:27:44;;;;;;;;;;;;;;;4.79;76.40;102767.63;5035895;27;20303;-67
2022/01/24 09:30:10;;;;;;;;;;;;;;;4.96;76.45;102774.09;5027892;27;20004;-68
2022/01/24 09:32:35;;;;;;;;;;;;;;;5.31;75.11;102774.69;5023244;27;19912;-67
2022/01/24 09:35:01;;;;;;;;;;;;;;;5.36;74.26;102762.28;5022835;27;20735;-68
2022/01/24 09:37:27;;;;;;;;;;;;;;;5.29;73.94;102772.13;5035014;27;19914;-67
2022/01/24 09:39:52;;;;;;;;;;;;;;;5.18;73.86;102762.91;5042848;27;19939;-68
2022/01/24 09:42:17;;;;;;;;;;;;;;;5.19;74.32;102761.97;5050109;27;19918;-67
2022/01/24 09:44:43;;;;;;;;;;;;;;;5.14;74.43;102767.38;5067579;27;19926;-69
2022/01/24 09:47:08;;;;;;;;;;;;;;;5.07;74.23;102758.84;5056879;27;19933;-67
2022/01/24 09:49:33;;;;;;;;;;;;;;;5.16;74.87;102769.06;5041214;27;19908;-68
2022/01/24 09:51:59;;;;;;;;;;;;;;;5.07;74.29;102771.13;5061720;27;20466;-67
2022/01/24 09:54:24;;;;;;;;;;;;;;;5.02;74.22;102773.91;5044016;27;20589;-67
2022/01/24 09:56:49;;;;;;;;;;;;;;;4.96;73.70;102766.22;5067057;27;20227;-69
2022/01/24 09:59:14;;;;;;;;;;;;;;;4.99;73.34;102768.72;5029295;27;20816;-67
2022/01/24 10:01:39;;;;;;;;;;;;;;;5.03;73.87;102767.72;5047599;27;19914;-68
2022/01/24 10:04:15;;;;;;;;;;;;;;;5.11;73.98;102773.59;5037793;28;19911;-67
2022/01/24 10:06:56;;;;;;;;;;;;;;;5.13;73.63;102782.28;5016358;28;19928;-68
2022/01/24 10:09:28;;;;;;;;;;;;;;;5.15;73.59;102777.81;5042764;27;19915;-69
2022/01/24 10:12:05;;;;;;;;;;;;;;;4.93;72.71;102771.56;5025403;27;19911;-68
2022/01/24 10:17:22;;;;;;;;;;;;;;;4.97;72.43;102775.81;5035040;27;19934;-67
2022/01/24 10:19:47;;;;;;;;;;;;;;;4.98;72.41;102767.03;5031430;28;20177;-66
2022/01/24 10:22:12;;;;;;;;;;;;;;;4.99;72.38;102769.59;5048634;27;19911;-67
2022/01/24 10:24:38;;;;;;;;;;;;;;;5.02;72.78;102770.41;5021299;27;20143;-67
2022/01/24 10:27:27;;;;;;;;;;;;;;;5.12;72.75;102775.31;5030741;27;19930;-67
2022/01/24 10:29:56;;;;;;;;;;;;;;;5.18;72.36;102769.00;5039409;27;20004;-69
2022/01/24 10:32:30;;;;;;;;;;;;;;;5.13;72.40;102766.53;5054970;27;19944;-67
2022/01/24 10:34:56;;;;;;;;;;;;;;;5.12;72.74;102762.19;5055387;27;20341;-67
2022/01/24 10:37:21;;;;;;;;;;;;;;;5.15;72.87;102769.94;5027539;27;20802;-66
2022/01/24 10:39:56;;;;;;;;;;;;;;;5.18;72.51;102762.91;5055712;27;19907;-68
2022/01/24 10:44:54;;;;;;;;;;;;;;;5.08;72.60;102765.81;5036474;27;19923;-67
2022/01/24 10:47:23;;;;;;;;;;;;;;;5.13;72.48;102763.91;5034659;27;19922;-68
2022/01/24 10:49:49;;;;;;;;;;;;;;;5.09;72.77;102761.41;5047456;27;19903;-68
2022/01/24 10:52:21;;;;;;;;;;;;;;;4.94;72.82;102761.03;5033979;27;20893;-66
2022/01/24 10:54:46;;;;;;;;;;;;;;;5.03;72.34;102751.13;5052256;27;19907;-67
2022/01/24 10:57:19;;;;;;;;;;;;;;;5.06;72.83;102749.28;5060104;27;20219;-67
2022/01/24 10:59:44;;;;;;;;;;;;;;;5.20;72.90;102756.66;5045175;27;19911;-66
2022/01/24 11:02:10;;;;;;;;;;;;;;;5.18;72.74;102742.75;5055790;27;19910;-67
2022/01/24 11:04:35;;;;;;;;;;;;;;;5.26;72.72;102747.72;5014532;27;19904;-68
2022/01/24 11:07:01;;;;;;;;;;;;;;;5.20;73.01;102738.28;5016400;27;19907;-68
2022/01/24 11:09:27;;;;;;;;;;;;;;;5.10;73.58;102740.38;5019649;27;19991;-66
2022/01/24 11:11:53;;;;;;;;;;;;;;;5.23;73.65;102737.34;5030232;27;19907;-68
2022/01/24 11:14:20;;;;;;;;;;;;;;;5.22;73.69;102735.59;5037921;27;20003;-69
2022/01/24 11:16:45;;;;;;;;;;;;;;;5.21;73.15;102733.91;5051727;27;20831;-67
2022/01/24 11:19:19;;;;;;;;;;;;;;;5.13;73.00;102735.03;5012109;27;19907;-69
2022/01/24 11:21:44;;;;;;;;;;;;;;;5.15;72.66;102735.84;5036514;27;19911;-68
2022/01/24 11:24:10;;;;;;;;;;;;;;;4.93;73.34;102735.69;5034432;27;19922;-66
2022/01/24 11:26:36;;;;;;;;;;;;;;;5.03;73.02;102738.00;5016108;27;19978;-67
2022/01/24 11:29:01;;;;;;;;;;;;;;;5.01;73.15;102732.81;5012314;27;20142;-68
2022/01/24 11:31:28;;;;;;;;;;;;;;;5.13;73.37;102727.16;5013701;27;19923;-68
2022/01/24 11:34:13;;;;;;;;;;;;;;;5.07;73.52;102729.13;5017896;27;19900;-68
2022/01/24 11:36:40;;;;;;;;;;;;;;;4.98;73.45;102725.06;5003660;27;20008;-67
2022/01/24 11:39:06;;;;;;;;;;;;;;;5.14;73.31;102717.50;5041028;27;19910;-67
2022/01/24 11:41:33;;;;;;;;;;;;;;;5.10;72.75;102724.63;5043023;27;19915;-67
2022/01/24 11:44:06;;;;;;;;;;;;;;;5.07;72.68;102726.50;5015364;27;20743;-69
2022/01/24 11:46:36;;;;;;;;;;;;;;;5.16;72.97;102721.81;5021060;27;20639;-67
2022/01/24 11:49:03;;;;;;;;;;;;;;;5.11;72.67;102722.88;5030256;27;19912;-68
2022/01/24 11:51:32;;;;;;;;;;;;;;;4.98;73.65;102714.56;5024329;27;20043;-70
2022/01/24 11:53:57;;;;;;;;;;;;;;;5.09;73.94;102717.69;5031312;27;19953;-69
2022/01/24 11:56:26;;;;;;;;;;;;;;;5.09;72.87;102714.19;5017604;27;20388;-68
2022/01/24 11:59:11;;;;;;;;;;;;;;;4.95;73.83;102707.66;5033578;27;20025;-69
2022/01/24 12:01:38;;;;;;;;;;;;;;;5.02;73.45;102716.19;5027001;27;20028;-68
2022/01/24 12:04:03;;;;;;;;;;;;;;;4.96;73.53;102714.63;5025874;27;20126;-67
2022/01/24 12:06:28;;;;;;;;;;;;;;;4.93;73.86;102705.97;5031707;27;19928;-69
2022/01/24 12:09:00;;;;;;;;;;;;;;;5.02;73.22;102703.06;5016564;28;20216;-67
2022/01/24 12:11:30;;;;;;;;;;;;;;;4.97;73.65;102707.59;5012924;27;20571;-67
2022/01/24 12:14:01;;;;;;;;;;;;;;;4.92;73.91;102706.88;5034523;27;19919;-68
2022/01/24 12:16:33;;;;;;;;;;;;;;;4.98;73.38;102704.06;5042273;27;19917;-68
2022/01/24 12:18:59;;;;;;;;;;;;;;;4.97;74.00;102704.97;5043359;27;19960;-68
2022/01/24 12:21:25;;;;;;;;;;;;;;;4.94;74.01;102708.56;5042721;27;20097;-67
2022/01/24 12:23:51;;;;;;;;;;;;;;;5.02;73.84;102704.81;5044457;27;19908;-68
2022/01/24 12:26:16;;;;;;;;;;;;;;;5.02;73.64;102700.44;5023958;27;19930;-68
2022/01/24 12:28:41;;;;;;;;;;;;;;;5.03;73.27;102701.28;5046104;27;20805;-68
2022/01/24 12:31:17;;;;;;;;;;;;;;;4.98;72.95;102704.06;5040782;27;20266;-69
2022/01/24 12:33:42;;;;;;;;;;;;;;;5.01;73.45;102705.75;5019445;27;20000;-68
2022/01/24 12:36:08;;;;;;;;;;;;;;;4.96;72.89;102703.25;5034038;27;19915;-67
2022/01/24 12:38:47;;;;;;;;;;;;;;;4.89;73.55;102715.69;5030689;27;19920;-69
2022/01/24 12:41:26;;;;;;;;;;;;;;;4.92;73.98;102704.25;5051886;27;20819;-67
2022/01/24 12:44:11;;;;;;;;;;;;;;;4.81;75.21;102702.84;5050405;27;19907;-67
2022/01/24 12:47:02;;;;;;;;;;;;;;;4.86;74.51;102700.06;5026061;28;20385;-66
2022/01/24 12:49:28;;;;;;;;;;;;;;;4.93;73.72;102691.09;5040326;27;20810;-67
2022/01/24 12:51:53;;;;;;;;;;;;;;;4.89;74.45;102699.97;5009312;27;19919;-66
2022/01/24 12:54:19;;;;;;;;;;;;;;;4.86;74.68;102683.50;5027014;27;19911;-69
2022/01/24 12:56:44;;;;;;;;;;;;;;;4.77;74.92;102685.50;5034914;27;20417;-69
2022/01/24 12:59:09;;;;;;;;;;;;;;;4.79;74.75;102682.81;5032129;27;19903;-68
2022/01/24 13:01:35;;;;;;;;;;;;;;;4.84;74.46;102687.91;5030183;27;19911;-67
2022/01/24 13:04:02;;;;;;;;;;;;;;;4.61;74.74;102689.53;5028322;27;19934;-70
2022/01/24 13:06:28;;;;;;;;;;;;;;;4.67;74.53;102683.22;5033377;27;19924;-68
2022/01/24 13:08:57;;;;;;;;;;;;;;;4.60;75.16;102680.81;5033104;27;19911;-67
2022/01/24 13:11:22;;;;;;;;;;;;;;;4.71;74.79;102682.22;5031940;27;19964;-67
2022/01/24 13:14:01;;;;;;;;;;;;;;;4.64;75.16;102685.06;5025700;27;19997;-67
2022/01/24 13:22:20;;;;;;;;;;;;;;;4.72;75.47;102682.16;5032512;27;20306;-69
2022/01/24 13:25:11;;;;;;;;;;;;;;;4.86;75.16;102688.72;5026393;27;19968;-67
2022/01/24 13:27:57;;;;;;;;;;;;;;;4.79;75.47;102673.22;4996333;27;19931;-66
2022/01/24 13:30:33;;;;;;;;;;;;;;;4.85;76.14;102676.53;5033724;27;20396;-68
2022/01/24 13:32:59;;;;;;;;;;;;;;;4.92;75.24;102683.28;5019561;27;20052;-68
2022/01/24 13:35:29;;;;;;;;;;;;;;;4.82;75.02;102683.59;5010248;27;20078;-67
2022/01/24 13:37:55;;;;;;;;;;;;;;;4.84;74.39;102674.78;5029500;27;20628;-67
2022/01/24 13:40:53;;;;;;;;;;;;;;;4.80;75.36;102680.16;5010957;27;19976;-68
2022/01/24 13:43:37;;;;;;;;;;;;;;;4.75;75.96;102675.97;5010442;27;20291;-67
2022/01/24 13:46:12;;;;;;;;;;;;;;;4.77;75.85;102685.50;5036337;27;19934;-67
2022/01/24 13:48:37;;;;;;;;;;;;;;;4.84;75.92;102680.91;5022654;27;19908;-68
2022/01/24 13:51:03;;;;;;;;;;;;;;;4.81;75.63;102676.63;5013794;27;19903;-68
2022/01/24 13:53:47;;;;;;;;;;;;;;;4.75;75.76;102676.84;5027359;27;20691;-67
2022/01/24 13:56:20;;;;;;;;;;;;;;;4.72;75.21;102681.31;5022712;27;20164;-68
2022/01/24 13:59:04;;;;;;;;;;;;;;;4.77;75.58;102680.25;5029213;27;19912;-67
2022/01/24 14:01:29;;;;;;;;;;;;;;;4.79;75.68;102673.22;5055019;27;19914;-66
2022/01/24 14:03:58;;;;;;;;;;;;;;;4.76;75.94;102673.28;5037405;27;20277;-67
2022/01/24 14:06:23;;;;;;;;;;;;;;;4.78;76.14;102681.97;5036876;27;19923;-68
2022/01/24 14:09:00;;;;;;;;;;;;;;;4.78;75.74;102686.34;5037450;27;20279;-67
2022/01/24 14:11:25;;;;;;;;;;;;;;;4.77;75.57;102682.88;5038108;27;20829;-67
2022/01/24 14:13:55;;;;;;;;;;;;;;;4.82;76.53;102677.47;5027371;27;19915;-67
2022/01/24 14:16:46;;;;;;;;;;;;;;;4.80;75.56;102677.53;5044602;27;20016;-69
2022/01/24 14:19:11;;;;;;;;;;;;;;;4.79;75.45;102680.22;5042000;27;20397;-68
2022/01/24 14:21:36;;;;;;;;;;;;;;;4.79;76.14;102681.09;5035446;27;20303;-67
2022/01/24 14:24:02;;;;;;;;;;;;;;;4.88;75.42;102679.91;5034128;27;19959;-68
2022/01/24 14:26:28;;;;;;;;;;;;;;;4.86;74.60;102676.47;5034037;27;20016;-66
2022/01/24 14:29:12;;;;;;;;;;;;;;;4.89;74.98;102670.25;5041333;27;19904;-69
2022/01/24 14:31:38;;;;;;;;;;;;;;;4.87;75.44;102667.69;5018230;27;19915;-67
2022/01/24 14:34:04;;;;;;;;;;;;;;;4.86;75.55;102667.75;5039577;27;20520;-68